KFLDKVOK

Guest
Details From KFLD - Fond Du Lac Co
To KVOK - VOLK FLD
Flight Number -
Tags generated
Created
Modified
Stats Distance 77 nm / 143 km
Max Altitude 400 ft / 122 m
Waypoints 3
Social Downloads 0
Likes 0
Share VATSIM

Download

Looking for another format? Having issues loading an existing format? Contact us
Advertisement - Login to hide

Notes

Basic altitude profile: - Ascent Rate: 2500ft/min - Ascent Speed: 250kts - Cruise Altitude: 35000ft - Cruise Speed: 420kts - Descent Rate: 1500ft/min - Descent Speed: 250kts Options: - Use NATs: yes - Use PACOTS: yes - Use low airways: yes - Use high airways: yes

Route

KFLD HURST KVOK

ID Type Via Altitude (ft/m) Position (lat/lon) Dist (leg/tot) Name
O KFLD APT - 0 / 0 43.77123 / -88.48916 - / 0 nm Fond Du Lac Co
HURST FIX - 400 / 122 43.93602 / -90.20349 74 / 74 nm
O KVOK APT - 0 / 0 43.93924 / -90.25316 2 / 77 nm VOLK FLD

Altitude Profile

Advertisement - Login to hide

KFLD

Details ICAO KFLD (FLD)
Name Fond Du Lac Co
Region United States
Timezone America/Chicago (UTC-6.0)
Stats Elevation 808 ft / 246 m (AMSL)
Location 43.771200° -88.489200°
Runways 2
Magnetic Variation 3.617° W

METAR

KFLD 211453Z AUTO 24009KT 10SM CLR M08/M12 A3006 RMK AO2 SLP190 T10781122 53029

Decode

TAF

Not found

Departure Runways

ID Width Length Bearing (true/mag) Surface Threshold Overrun Markings Lighting
09 75 ft / 23 m 3,593 ft / 1,095 m 91.66° / 95.28° ASPHALT 0 ft / 0 m 0 ft / 0 m APP EDGE THRESHOLD
18 100 ft / 30 m 5,948 ft / 1,813 m 180.05° / 183.66° ASPHALT 0 ft / 0 m 0 ft / 0 m PREC-APP EDGE THRESHOLD REIL-OMNI
27 75 ft / 23 m 3,593 ft / 1,095 m 271.67° / 275.29° ASPHALT 0 ft / 0 m 0 ft / 0 m APP EDGE THRESHOLD
36 100 ft / 30 m 5,948 ft / 1,813 m 0.05° / 3.67° ASPHALT 0 ft / 0 m 0 ft / 0 m PREC-APP EDGE THRESHOLD MALSR REIL-OMNI

KVOK

Details ICAO KVOK (VOK)
Name VOLK FLD
Region United States
Timezone America/Chicago (UTC-6.0)
Stats Elevation 912 ft / 278 m (AMSL)
Location 43.939200° -90.253200°
Runways 1
Magnetic Variation 2.208° W

METAR

KVOK 211456Z 28011KT 10SM CLR M10/M13 A3007 RMK AO2A SLP201 52029

Decode

TAF

TAF AMD KVOK 211250Z 2112/2215 25008KT 9999 SKC QNH3000INS BECMG 2204/2205 VRB06KT 9999 BKN010 QNH3005INS BECMG 2211/2212 12006KT 9999 SCT070 BKN090 QNH3035INS TXM06/2121Z TNM12/2112Z

Decode

Destination Runways

ID Width Length Bearing (true/mag) Surface Threshold Overrun Markings Lighting
09 150 ft / 46 m 8,977 ft / 2,736 m 89.00° / 91.21° CONCRETE 0 ft / 0 m 1,000 ft / 305 m APP EDGE THRESHOLD MALSR
27 150 ft / 46 m 8,977 ft / 2,736 m 269.02° / 271.23° CONCRETE 0 ft / 0 m 1,000 ft / 305 m PREC-APP EDGE THRESHOLD ALSF-I

Approach Navaids

Runway Type Ident Frequency Range Bearing (true/mag) Slope Elevation
27 GS IVOK 108.50 MHz 10 nm / 19 km 269.02° / 271.23 ° 2.85° 903 ft / 275 m (AMSL)
27 OM OM - - 269.01° / 271.22 ° - 912 ft / 278 m (AMSL)
27 LOC-ILS IVOK 108.50 MHz 18 nm / 33 km 268.58° / 270.79 ° - 914 ft / 279 m (AMSL)

Popular Alternatives